createdAt,value
2023-05-02T00:01:28.077Z,36.75
2023-05-02T00:03:55.112Z,24.00
2023-05-02T00:06:22.241Z,28.25
2023-05-02T00:08:50.132Z,29.00
2023-05-02T00:11:17.035Z,25.25
2023-05-02T00:13:44.188Z,26.50
2023-05-02T00:16:11.408Z,27.25
2023-05-02T00:18:38.269Z,26.25
2023-05-02T00:21:05.472Z,26.00
2023-05-02T00:23:32.294Z,26.75
2023-05-02T00:25:59.183Z,24.00
2023-05-02T00:28:27.168Z,29.75
2023-05-02T00:30:54.100Z,29.75
2023-05-02T00:33:21.018Z,29.75
2023-05-02T00:35:47.929Z,31.00
2023-05-02T00:38:14.800Z,27.00
2023-05-02T00:40:49.219Z,29.00
2023-05-02T00:43:16.754Z,36.00
2023-05-02T00:45:46.366Z,32.75
2023-05-02T00:48:14.082Z,34.50
2023-05-02T00:50:43.036Z,32.00
2023-05-02T00:53:11.309Z,34.00
2023-05-02T00:55:38.636Z,32.25
2023-05-02T00:58:17.987Z,29.50
2023-05-02T01:01:03.082Z,31.50
2023-05-02T01:03:40.069Z,31.00
2023-05-02T01:06:32.124Z,31.00
2023-05-02T01:09:17.598Z,31.00
2023-05-02T01:12:09.303Z,31.25
2023-05-02T01:14:42.707Z,31.00
2023-05-02T01:17:14.480Z,30.00
2023-05-02T01:19:51.421Z,33.25
2023-05-02T01:22:20.181Z,34.25
2023-05-02T01:25:01.696Z,30.25
2023-05-02T01:27:44.215Z,31.00
2023-05-02T01:30:13.465Z,28.75
2023-05-02T01:32:43.821Z,25.50
2023-05-02T01:35:11.663Z,24.75
2023-05-02T01:37:39.593Z,25.25
2023-05-02T01:40:09.556Z,25.50
2023-05-02T01:42:38.273Z,24.00
2023-05-02T01:45:07.416Z,25.00
2023-05-02T01:47:37.139Z,17.25
2023-05-02T01:50:11.714Z,22.50
2023-05-02T01:52:40.609Z,22.75
2023-05-02T01:55:12.181Z,25.50
2023-05-02T01:57:42.373Z,25.00
2023-05-02T02:00:10.670Z,29.00
2023-05-02T02:02:42.940Z,26.25
2023-05-02T02:05:12.636Z,26.25
2023-05-02T02:07:39.541Z,22.00
2023-05-02T02:10:07.198Z,22.00
2023-05-02T02:12:49.268Z,24.50
2023-05-02T02:15:16.111Z,26.25
2023-05-02T02:18:02.293Z,31.00
2023-05-02T02:20:30.296Z,26.25
2023-05-02T02:22:59.085Z,29.50
2023-05-02T02:25:27.203Z,31.00
2023-05-02T02:27:54.630Z,26.25
2023-05-02T02:30:21.546Z,25.25
2023-05-02T02:32:48.539Z,22.75
2023-05-02T02:35:15.925Z,25.50
2023-05-02T02:38:22.445Z,24.75
2023-05-02T02:41:28.154Z,24.00
2023-05-02T02:44:04.297Z,25.25
2023-05-02T02:47:12.685Z,26.00
2023-05-02T02:50:14.522Z,30.25
2023-05-02T02:52:55.650Z,29.00
2023-05-02T02:55:43.367Z,25.25
2023-05-02T02:58:27.587Z,27.75
2023-05-02T03:00:56.030Z,27.75
2023-05-02T03:03:29.160Z,28.75
2023-05-02T03:05:57.289Z,26.25
2023-05-02T03:08:25.355Z,25.50
2023-05-02T03:10:52.310Z,25.75
2023-05-02T03:13:19.241Z,29.25
2023-05-02T03:15:53.360Z,28.75
2023-05-02T03:18:27.232Z,23.75
2023-05-02T03:20:54.559Z,26.75
2023-05-02T03:23:21.688Z,23.25
2023-05-02T03:25:49.409Z,27.50
2023-05-02T03:28:21.505Z,25.50
2023-05-02T03:30:50.245Z,29.00
2023-05-02T03:33:17.295Z,31.00
2023-05-02T03:35:46.109Z,30.75
2023-05-02T03:38:13.560Z,29.50
2023-05-02T03:40:40.483Z,24.50
2023-05-02T03:43:11.583Z,31.00
2023-05-02T03:45:38.952Z,25.75
2023-05-02T03:48:06.336Z,25.25
2023-05-02T03:50:33.362Z,24.00
2023-05-02T03:53:00.662Z,23.50
2023-05-02T03:55:43.682Z,24.25
2023-05-02T03:58:17.624Z,25.25
2023-05-02T04:00:45.824Z,22.00
2023-05-02T04:03:13.089Z,25.00
2023-05-02T04:05:42.660Z,24.75
2023-05-02T04:08:11.842Z,25.00
2023-05-02T04:10:38.905Z,24.00
2023-05-02T04:13:08.848Z,24.00
2023-05-02T04:15:38.280Z,24.00
2023-05-02T04:18:05.923Z,23.25
2023-05-02T04:20:33.601Z,22.50
2023-05-02T04:23:00.874Z,28.25
2023-05-02T04:25:28.432Z,28.00
2023-05-02T04:27:57.985Z,26.25
2023-05-02T04:30:25.629Z,28.75
2023-05-02T04:32:58.926Z,30.75
2023-05-02T04:35:30.546Z,30.75
2023-05-02T04:37:57.481Z,26.00
2023-05-02T04:40:24.386Z,28.25
2023-05-02T04:42:58.622Z,27.00
2023-05-02T04:45:31.369Z,28.50
2023-05-02T04:47:58.872Z,30.25
2023-05-02T04:50:28.006Z,30.25
2023-05-02T04:52:55.089Z,33.00
2023-05-02T04:55:22.649Z,34.00
2023-05-02T04:57:49.618Z,45.00
2023-05-02T05:00:17.596Z,33.00
2023-05-02T05:02:44.698Z,31.25
2023-05-02T05:05:14.994Z,32.00
2023-05-02T05:07:43.172Z,35.00
2023-05-02T05:10:11.641Z,36.50
2023-05-02T05:12:46.379Z,28.50
2023-05-02T05:15:14.297Z,64.00
2023-05-02T05:17:45.506Z,29.00
2023-05-02T05:20:12.882Z,32.50
2023-05-02T05:22:41.509Z,30.00
2023-05-02T05:25:10.378Z,35.75
2023-05-02T05:27:37.747Z,33.00
2023-05-02T05:30:06.813Z,32.75
2023-05-02T05:32:34.144Z,34.00
2023-05-02T05:35:01.567Z,30.75
2023-05-02T05:37:29.123Z,32.00
2023-05-02T05:39:57.730Z,29.75
2023-05-02T05:42:25.796Z,29.75
2023-05-02T05:44:56.375Z,29.00
2023-05-02T05:47:24.014Z,27.75
2023-05-02T05:49:56.660Z,27.00
2023-05-02T05:52:27.855Z,26.75
2023-05-02T05:54:59.843Z,26.25
2023-05-02T05:57:28.746Z,29.25
2023-05-02T05:59:56.620Z,29.50
2023-05-02T06:02:24.037Z,32.00
2023-05-02T06:04:50.976Z,33.00
2023-05-02T06:07:20.880Z,33.50
2023-05-02T06:09:47.799Z,34.00
2023-05-02T06:12:16.526Z,32.00
2023-05-02T06:14:43.898Z,34.00
2023-05-02T06:17:12.399Z,32.00
2023-05-02T06:19:39.306Z,32.25
2023-05-02T06:22:06.720Z,32.00
2023-05-02T06:24:33.700Z,31.00
2023-05-02T06:27:01.081Z,32.25
2023-05-02T06:29:28.006Z,30.75
2023-05-02T06:31:57.954Z,30.25
2023-05-02T06:34:25.135Z,31.75
2023-05-02T06:36:58.995Z,36.50
2023-05-02T06:39:26.480Z,25.50
2023-05-02T06:41:59.733Z,34.25
2023-05-02T06:44:28.160Z,34.00
2023-05-02T06:46:57.948Z,34.50
2023-05-02T06:49:26.124Z,26.33
2023-05-02T06:51:53.708Z,28.33
2023-05-02T06:54:21.877Z,29.00
2023-05-02T06:56:49.057Z,25.33
2023-05-02T06:59:17.053Z,26.67
2023-05-02T07:01:44.614Z,19.33
2023-05-02T07:04:11.777Z,24.00
2023-05-02T07:06:39.355Z,30.00
2023-05-02T07:09:06.323Z,32.00
2023-05-02T07:11:33.167Z,31.67
2023-05-02T07:14:00.148Z,29.67
2023-05-02T07:16:27.148Z,32.00
2023-05-02T07:18:54.006Z,27.67
2023-05-02T07:21:21.129Z,27.00
2023-05-02T07:23:48.001Z,27.67
2023-05-02T07:26:14.832Z,25.33
2023-05-02T07:28:41.767Z,25.67
2023-05-02T07:31:08.592Z,21.67
2023-05-02T07:33:35.544Z,22.67
2023-05-02T07:36:02.900Z,23.33
2023-05-02T07:38:30.464Z,23.33
2023-05-02T07:40:59.468Z,21.33
2023-05-02T07:43:27.792Z,20.25
2023-05-02T07:45:55.418Z,21.33
2023-05-02T07:48:22.421Z,24.33
2023-05-02T07:50:52.175Z,25.33
2023-05-02T07:53:19.711Z,26.33
2023-05-02T07:55:46.724Z,28.33
2023-05-02T07:58:13.604Z,28.33
2023-05-02T08:00:40.626Z,29.33
2023-05-02T08:03:08.163Z,26.33
2023-05-02T08:05:35.103Z,27.33
2023-05-02T08:08:04.640Z,24.33
2023-05-02T08:10:31.677Z,17.25
2023-05-02T08:13:00.318Z,17.25
2023-05-02T08:15:27.143Z,14.00
2023-05-02T08:17:54.029Z,12.25
2023-05-02T08:20:22.439Z,10.50
2023-05-02T08:22:49.407Z,16.50
2023-05-02T08:25:16.774Z,20.50
2023-05-02T08:27:44.101Z,15.75
2023-05-02T08:30:11.667Z,14.25
2023-05-02T08:32:38.634Z,17.00
2023-05-02T08:35:07.994Z,18.50
2023-05-02T08:37:36.437Z,15.50
2023-05-02T08:40:03.874Z,14.00
2023-05-02T08:42:33.560Z,19.50
2023-05-02T08:45:01.147Z,21.25
2023-05-02T08:47:30.699Z,19.25
2023-05-02T08:49:59.777Z,17.50
2023-05-02T08:52:27.516Z,18.25
2023-05-02T08:54:55.799Z,18.33
2023-05-02T08:57:22.688Z,17.75
2023-05-02T08:59:50.208Z,11.00
2023-05-02T09:02:58.976Z,15.50
2023-05-02T09:05:26.230Z,13.25
2023-05-02T09:07:53.209Z,14.25
2023-05-02T09:10:22.084Z,13.25
2023-05-02T09:12:49.031Z,13.25
2023-05-02T09:15:20.578Z,12.25
2023-05-02T09:17:49.305Z,11.50
2023-05-02T09:20:16.924Z,14.75
2023-05-02T09:22:52.270Z,12.50
2023-05-02T09:25:22.622Z,14.50
2023-05-02T09:27:53.063Z,15.50
2023-05-02T09:30:26.767Z,18.50
2023-05-02T09:32:56.379Z,14.75
2023-05-02T09:35:26.192Z,12.75
2023-05-02T09:37:57.564Z,15.00
2023-05-02T09:40:25.755Z,14.25
2023-05-02T09:42:52.979Z,14.75
2023-05-02T09:45:24.404Z,11.25
2023-05-02T09:47:52.762Z,13.00
2023-05-02T09:50:38.922Z,13.25
2023-05-02T09:53:11.311Z,12.75
2023-05-02T09:55:38.308Z,13.00
2023-05-02T09:58:06.056Z,15.50
2023-05-02T10:00:40.677Z,14.75
2023-05-02T10:03:08.657Z,13.00
2023-05-02T10:05:39.702Z,12.25
2023-05-02T10:08:07.706Z,14.00
2023-05-02T10:10:37.484Z,14.50
2023-05-02T10:13:05.692Z,14.25
2023-05-02T10:15:34.003Z,13.00
2023-05-02T10:18:08.820Z,11.25
2023-05-02T10:20:41.076Z,15.50
2023-05-02T10:23:09.727Z,15.00
2023-05-02T10:25:36.749Z,13.00
2023-05-02T10:28:04.498Z,14.25
2023-05-02T10:30:31.836Z,15.75
2023-05-02T10:33:00.051Z,17.50
2023-05-02T10:35:27.265Z,14.50
2023-05-02T10:37:55.188Z,15.50
2023-05-02T10:40:23.184Z,14.50
2023-05-02T10:42:52.507Z,12.25
2023-05-02T10:45:36.275Z,13.25
2023-05-02T10:48:20.989Z,14.00
2023-05-02T10:51:01.298Z,14.50
2023-05-02T10:53:33.771Z,10.75
2023-05-02T10:56:15.710Z,14.50
2023-05-02T10:58:44.611Z,11.25
2023-05-02T11:01:28.308Z,15.50
2023-05-02T11:03:56.818Z,11.25
2023-05-02T11:06:28.091Z,9.75
2023-05-02T11:09:14.666Z,17.25
2023-05-02T11:11:46.222Z,14.75
2023-05-02T11:14:38.808Z,13.75
2023-05-02T11:17:09.613Z,13.75
2023-05-02T11:19:36.659Z,13.75
2023-05-02T11:22:33.789Z,12.00
2023-05-02T11:25:00.933Z,11.50
2023-05-02T11:27:34.043Z,13.50
2023-05-02T11:30:02.026Z,12.00
2023-05-02T11:32:44.860Z,14.00
2023-05-02T11:35:26.889Z,14.00
2023-05-02T11:38:03.259Z,14.75
2023-05-02T11:40:32.099Z,12.75
2023-05-02T11:43:01.082Z,14.25
2023-05-02T11:45:36.496Z,11.50
2023-05-02T11:48:07.928Z,9.50
2023-05-02T11:50:49.666Z,10.50
2023-05-02T11:53:23.382Z,11.00
2023-05-02T11:56:03.771Z,12.25
2023-05-02T11:58:33.543Z,9.50
2023-05-02T12:01:16.486Z,12.25
2023-05-02T12:03:44.036Z,12.25
2023-05-02T12:06:16.285Z,10.50
2023-05-02T12:08:44.575Z,14.50
2023-05-02T12:11:15.985Z,11.50
2023-05-02T12:13:48.093Z,9.50
2023-05-02T12:16:16.766Z,11.75
2023-05-02T12:18:44.082Z,12.25
2023-05-02T12:21:12.010Z,10.00
2023-05-02T12:23:40.260Z,11.50
2023-05-02T12:26:21.526Z,12.25
2023-05-02T12:28:52.743Z,12.50
2023-05-02T12:31:20.017Z,13.25
2023-05-02T12:33:52.526Z,11.50
2023-05-02T12:36:19.971Z,12.25
2023-05-02T12:38:55.179Z,9.75
2023-05-02T12:41:45.961Z,11.25
2023-05-02T12:44:13.518Z,10.50
2023-05-02T12:46:59.369Z,13.00
2023-05-02T12:49:26.724Z,9.25
2023-05-02T12:51:56.380Z,10.75
2023-05-02T12:54:24.568Z,10.50
2023-05-02T12:56:52.536Z,8.00
2023-05-02T12:59:30.045Z,12.25
2023-05-02T13:01:57.574Z,11.25
2023-05-02T13:04:35.369Z,13.00
2023-05-02T13:07:04.089Z,11.00
2023-05-02T13:09:30.922Z,6.00
2023-05-02T13:11:59.119Z,9.25
2023-05-02T13:14:26.944Z,11.75
2023-05-02T13:16:55.302Z,12.75
2023-05-02T13:19:22.886Z,13.50
2023-05-02T13:21:50.037Z,11.00
2023-05-02T13:24:17.874Z,9.00
2023-05-02T13:26:46.403Z,13.25
2023-05-02T13:29:13.504Z,12.25
2023-05-02T13:31:40.417Z,11.75
2023-05-02T13:34:07.214Z,14.00
2023-05-02T13:36:35.364Z,15.50
2023-05-02T13:39:02.213Z,10.75
2023-05-02T13:41:29.107Z,16.25
2023-05-02T13:43:57.083Z,13.25
2023-05-02T13:46:24.218Z,14.00
2023-05-02T13:48:51.145Z,12.00
2023-05-02T13:51:18.558Z,13.25
2023-05-02T13:53:46.157Z,11.50
2023-05-02T13:56:12.987Z,13.50
2023-05-02T13:58:40.788Z,11.25
2023-05-02T14:01:08.039Z,13.25
2023-05-02T14:03:34.974Z,11.75
2023-05-02T14:06:02.197Z,12.50
2023-05-02T14:08:29.074Z,14.00
2023-05-02T14:10:56.020Z,11.50
2023-05-02T14:13:23.079Z,11.00
2023-05-02T14:15:50.214Z,12.25
2023-05-02T14:18:17.128Z,12.25
2023-05-02T14:20:44.565Z,11.00
2023-05-02T14:23:11.659Z,13.25
2023-05-02T14:25:38.918Z,13.25
2023-05-02T14:28:06.916Z,12.00
2023-05-02T14:30:33.976Z,20.75
2023-05-02T14:33:01.153Z,12.25
2023-05-02T14:35:28.811Z,14.25
2023-05-02T14:37:55.629Z,12.50
2023-05-02T14:40:23.082Z,13.75
2023-05-02T14:42:49.959Z,14.50
2023-05-02T14:45:16.991Z,16.00
2023-05-02T14:47:43.859Z,14.50
2023-05-02T14:50:11.284Z,15.50
2023-05-02T14:52:38.135Z,15.75
2023-05-02T14:55:06.333Z,17.25
2023-05-02T14:57:33.445Z,14.25
2023-05-02T15:00:00.949Z,16.50
2023-05-02T15:02:28.166Z,12.25
2023-05-02T15:04:55.127Z,15.50
2023-05-02T15:07:22.097Z,17.25
2023-05-02T15:09:49.641Z,16.25
2023-05-02T15:12:16.416Z,11.25
2023-05-02T15:14:43.864Z,13.00
2023-05-02T15:17:10.716Z,11.00
2023-05-02T15:19:38.091Z,13.50
2023-05-02T15:22:05.982Z,12.25
2023-05-02T15:24:32.795Z,14.75
2023-05-02T15:26:59.712Z,25.33
2023-05-02T15:29:26.542Z,33.75
2023-05-02T15:31:54.686Z,22.33
2023-05-02T15:34:21.664Z,25.67
2023-05-02T15:36:49.586Z,12.00
2023-05-02T15:39:16.561Z,18.00
2023-05-02T15:41:43.635Z,17.00
2023-05-02T15:44:10.562Z,12.75
2023-05-02T15:46:37.476Z,17.25
2023-05-02T15:49:04.481Z,16.75
2023-05-02T15:51:32.759Z,21.00
2023-05-02T15:54:00.122Z,25.00
2023-05-02T15:56:27.016Z,18.33
2023-05-02T15:58:54.309Z,22.67
2023-05-02T16:01:24.112Z,21.33
2023-05-02T16:03:51.476Z,24.00
2023-05-02T16:06:18.455Z,12.75
2023-05-02T16:08:45.805Z,18.25
2023-05-02T16:11:13.479Z,21.00
2023-05-02T16:13:40.744Z,27.00
2023-05-02T16:16:07.907Z,29.67
2023-05-02T16:18:35.236Z,25.33
2023-05-02T16:21:02.128Z,25.67
2023-05-02T16:23:29.027Z,26.00
2023-05-02T16:26:00.171Z,27.33
2023-05-02T16:28:27.287Z,27.33
2023-05-02T16:30:54.215Z,23.33
2023-05-02T16:33:22.109Z,21.67
2023-05-02T16:35:49.169Z,19.00
2023-05-02T16:38:16.112Z,23.33
2023-05-02T16:40:43.080Z,8.00
2023-05-02T16:43:09.981Z,28.00
2023-05-02T16:45:37.366Z,28.67
2023-05-02T16:48:04.994Z,28.67
2023-05-02T16:50:32.169Z,25.00
2023-05-02T16:52:59.051Z,20.67
2023-05-02T16:55:26.825Z,23.33
2023-05-02T16:57:54.369Z,21.00
2023-05-02T17:00:22.166Z,24.33
2023-05-02T17:02:50.724Z,21.33
2023-05-02T17:05:17.811Z,20.33
2023-05-02T17:07:45.101Z,24.33
2023-05-02T17:10:12.454Z,22.33
2023-05-02T17:12:39.300Z,24.00
2023-05-02T17:15:07.800Z,30.00
2023-05-02T17:17:34.599Z,31.00
2023-05-02T17:20:02.608Z,34.75
2023-05-02T17:22:29.610Z,33.50
2023-05-02T17:24:56.670Z,35.00
2023-05-02T17:27:23.589Z,33.50
2023-05-02T17:29:50.528Z,36.75
2023-05-02T17:32:19.202Z,43.75
2023-05-02T17:34:47.580Z,45.75
2023-05-02T17:37:14.398Z,39.25
2023-05-02T17:39:42.128Z,45.75
2023-05-02T17:42:08.944Z,44.00
2023-05-02T17:44:36.283Z,34.75
2023-05-02T17:47:03.995Z,31.75
2023-05-02T17:49:30.939Z,31.00
2023-05-02T17:51:57.799Z,32.75
2023-05-02T17:54:24.867Z,37.25
2023-05-02T17:56:52.340Z,40.50
2023-05-02T17:59:20.632Z,50.00
2023-05-02T18:01:47.715Z,60.50
2023-05-02T18:04:14.986Z,38.00
2023-05-02T18:06:43.097Z,35.75
2023-05-02T18:09:10.713Z,29.25
2023-05-02T18:11:38.616Z,27.50
2023-05-02T18:14:06.911Z,28.75
2023-05-02T18:16:36.337Z,29.50
2023-05-02T18:19:03.827Z,31.75
2023-05-02T18:21:35.801Z,32.00
2023-05-02T18:24:03.488Z,36.25
2023-05-02T18:26:31.054Z,34.00
2023-05-02T18:28:58.080Z,35.75
2023-05-02T18:31:25.007Z,35.25
2023-05-02T18:33:54.162Z,33.00
2023-05-02T18:36:26.154Z,42.00
2023-05-02T18:38:54.094Z,35.00
2023-05-02T18:41:21.109Z,34.00
2023-05-02T18:43:49.488Z,28.00
2023-05-02T18:46:16.819Z,30.50
2023-05-02T18:48:44.097Z,29.25
2023-05-02T18:51:11.687Z,30.00
2023-05-02T18:53:38.819Z,31.00
2023-05-02T18:56:12.824Z,31.00
2023-05-02T18:58:40.163Z,30.00
2023-05-02T19:01:17.009Z,30.50
2023-05-02T19:03:45.137Z,31.25
2023-05-02T19:06:15.190Z,32.25
2023-05-02T19:08:42.616Z,28.25
2023-05-02T19:11:10.544Z,32.00
2023-05-02T19:13:37.715Z,32.75
2023-05-02T19:16:05.596Z,36.00
2023-05-02T19:18:33.498Z,35.00
2023-05-02T19:21:08.366Z,37.25
2023-05-02T19:23:36.650Z,34.00
2023-05-02T19:26:03.783Z,34.25
2023-05-02T19:28:31.323Z,31.75
2023-05-02T19:30:58.494Z,31.00
2023-05-02T19:33:25.611Z,30.75
2023-05-02T19:35:55.119Z,31.75
2023-05-02T19:38:22.510Z,32.50
2023-05-02T19:40:49.646Z,35.50
2023-05-02T19:43:16.888Z,33.25
2023-05-02T19:45:44.322Z,33.00
2023-05-02T19:48:12.689Z,32.75
2023-05-02T19:50:41.038Z,32.00
2023-05-02T19:53:08.167Z,35.00
2023-05-02T19:55:36.001Z,33.00
2023-05-02T19:58:04.604Z,32.25
2023-05-02T20:00:32.980Z,34.25
2023-05-02T20:03:00.406Z,36.00
2023-05-02T20:05:27.549Z,36.00
2023-05-02T20:07:55.024Z,36.00
2023-05-02T20:10:22.285Z,37.00
2023-05-02T20:12:49.499Z,43.00
2023-05-02T20:15:17.750Z,45.25
2023-05-02T20:17:45.328Z,47.00
2023-05-02T20:20:12.837Z,50.25
2023-05-02T20:22:42.772Z,48.25
2023-05-02T20:25:16.289Z,41.00
2023-05-02T20:27:43.887Z,37.25
2023-05-02T20:30:15.177Z,35.00
2023-05-02T20:32:43.155Z,32.50
2023-05-02T20:35:10.829Z,30.25
2023-05-02T20:37:37.980Z,30.50
2023-05-02T20:40:06.568Z,30.00
2023-05-02T20:42:33.541Z,30.75
2023-05-02T20:45:01.847Z,31.25
2023-05-02T20:47:30.411Z,31.50
2023-05-02T20:49:57.555Z,32.00
2023-05-02T20:52:24.627Z,32.00
2023-05-02T20:54:57.623Z,35.00
2023-05-02T20:57:24.513Z,37.75
2023-05-02T20:59:51.455Z,40.00
2023-05-02T21:02:18.632Z,49.75
2023-05-02T21:04:45.817Z,38.00
2023-05-02T21:07:12.701Z,36.50
2023-05-02T21:09:39.560Z,37.00
2023-05-02T21:12:07.285Z,37.00
2023-05-02T21:14:34.426Z,36.50
2023-05-02T21:17:01.595Z,37.00
2023-05-02T21:19:28.750Z,36.00
2023-05-02T21:21:56.900Z,37.00
2023-05-02T21:24:23.827Z,35.50
2023-05-02T21:26:50.676Z,31.75
2023-05-02T21:29:18.673Z,32.75
2023-05-02T21:31:46.394Z,32.00
2023-05-02T21:34:14.408Z,33.25
2023-05-02T21:36:42.340Z,33.50
2023-05-02T21:39:09.807Z,31.75
2023-05-02T21:41:36.667Z,31.00
2023-05-02T21:44:03.568Z,33.00
2023-05-02T21:46:31.273Z,29.75
2023-05-02T21:48:58.147Z,29.75
2023-05-02T21:51:24.982Z,34.00
2023-05-02T21:53:53.555Z,33.75
2023-05-02T21:56:20.567Z,89.25
2023-05-02T21:58:49.663Z,34.50
2023-05-02T22:01:17.371Z,37.00
2023-05-02T22:03:44.368Z,54.25
2023-05-02T22:06:11.775Z,31.00
2023-05-02T22:08:38.759Z,29.75
2023-05-02T22:11:09.161Z,26.00
2023-05-02T22:13:36.971Z,25.75
2023-05-02T22:16:04.808Z,25.25
2023-05-02T22:18:31.736Z,24.00
2023-05-02T22:20:58.773Z,25.00
2023-05-02T22:23:25.792Z,34.25
2023-05-02T22:25:53.045Z,32.75
2023-05-02T22:28:19.985Z,25.00
2023-05-02T22:30:46.866Z,32.75
2023-05-02T22:33:14.262Z,36.25
2023-05-02T22:35:41.460Z,32.00
2023-05-02T22:38:11.271Z,33.25
2023-05-02T22:40:38.214Z,33.00
2023-05-02T22:43:05.560Z,35.25
2023-05-02T22:45:32.540Z,35.25
2023-05-02T22:47:59.530Z,37.00
2023-05-02T22:50:28.371Z,34.75
2023-05-02T22:52:59.818Z,38.00
2023-05-02T22:55:26.680Z,36.00
2023-05-02T22:57:53.622Z,36.00
2023-05-02T23:00:22.571Z,35.00
2023-05-02T23:02:50.906Z,33.00
2023-05-02T23:05:17.943Z,31.00
2023-05-02T23:07:44.844Z,33.00
2023-05-02T23:10:11.731Z,33.50
2023-05-02T23:12:38.949Z,36.00
2023-05-02T23:15:07.029Z,27.00
2023-05-02T23:17:37.227Z,29.00
2023-05-02T23:20:05.326Z,28.75
2023-05-02T23:22:36.517Z,26.50
2023-05-02T23:25:03.629Z,26.75
2023-05-02T23:27:30.617Z,27.00
2023-05-02T23:29:57.704Z,24.75
2023-05-02T23:32:24.628Z,26.50
2023-05-02T23:34:51.472Z,26.50
2023-05-02T23:37:18.446Z,25.00
2023-05-02T23:39:45.348Z,26.00
2023-05-02T23:42:12.175Z,25.75
2023-05-02T23:44:39.126Z,23.75
2023-05-02T23:47:06.791Z,27.00
2023-05-02T23:49:33.717Z,29.50
2023-05-02T23:52:02.748Z,28.00
2023-05-02T23:54:31.876Z,29.25
2023-05-02T23:57:00.730Z,26.00
2023-05-02T23:59:27.564Z,30.00
